Time;durP1;ratioP1;P1;durP2;ratioP2;P2;SDS_P1;SDS_P2;PMS_P1;PMS_P2;Temp;Humidity;BMP_temperature;BMP_pressure;BME280_temperature;BME280_humidity;BME280_pressure;Samples;Min_cycle;Max_cycle;Signal;HPM_P1;HPM_P2
2024/03/10 00:02:28;;;;;;;23.17;17.50;;;14.00;56.40;;;;;;4042702;29;20493;-40
2024/03/10 00:05:12;;;;;;;25.70;19.13;;;14.00;56.80;;;;;;4042889;29;20056;-44
2024/03/10 00:07:55;;;;;;;25.00;16.10;;;14.00;57.30;;;;;;4027887;29;20059;-41
2024/03/10 00:10:37;;;;;;;23.98;16.30;;;14.00;57.10;;;;;;4027323;29;20076;-49
2024/03/10 00:13:18;;;;;;;25.92;16.60;;;13.90;57.40;;;;;;4027243;29;20064;-46
2024/03/10 00:15:59;;;;;;;22.90;16.25;;;13.90;58.60;;;;;;4026850;29;20068;-47
2024/03/10 00:18:40;;;;;;;24.67;15.80;;;13.90;58.80;;;;;;4024579;29;20517;-48
2024/03/10 00:21:21;;;;;;;23.95;17.42;;;13.90;58.90;;;;;;4027153;29;20052;-49
2024/03/10 00:24:04;;;;;;;27.00;16.98;;;13.90;59.40;;;;;;4026174;29;20136;-47
2024/03/10 00:26:45;;;;;;;23.73;16.15;;;13.90;59.40;;;;;;4018810;29;20060;-46
2024/03/10 00:29:26;;;;;;;24.90;16.37;;;13.90;59.50;;;;;;4018321;29;20414;-47
2024/03/10 00:32:08;;;;;;;24.38;16.00;;;13.90;59.20;;;;;;4022738;29;20186;-49
2024/03/10 00:34:49;;;;;;;22.75;16.10;;;13.90;59.30;;;;;;4003239;29;20056;-48
2024/03/10 00:37:30;;;;;;;25.88;17.65;;;13.90;59.60;;;;;;4014142;29;20894;-47
2024/03/10 00:40:14;;;;;;;25.30;17.42;;;13.90;58.70;;;;;;4017034;29;20806;-47
2024/03/10 00:42:56;;;;;;;24.08;12.75;;;13.90;58.10;;;;;;4029178;29;20064;-49
2024/03/10 00:45:37;;;;;;;24.67;16.17;;;13.90;58.60;;;;;;4038139;29;20063;-52
2024/03/10 00:48:18;;;;;;;24.98;15.52;;;13.90;58.70;;;;;;4032191;29;20543;-47
2024/03/10 00:50:59;;;;;;;23.33;16.38;;;13.90;58.70;;;;;;4017208;29;20068;-51
2024/03/10 00:53:40;;;;;;;25.93;16.13;;;13.80;59.10;;;;;;4014497;29;20085;-49
2024/03/10 00:56:22;;;;;;;22.92;16.88;;;13.80;59.00;;;;;;4015430;29;20110;-47
2024/03/10 00:59:04;;;;;;;26.80;16.63;;;13.80;59.30;;;;;;4017915;29;20410;-50
2024/03/10 01:01:45;;;;;;;22.73;15.93;;;13.80;60.10;;;;;;4018048;29;20813;-48
2024/03/10 01:04:25;;;;;;;23.52;15.20;;;13.80;59.50;;;;;;4030065;29;20068;-49
2024/03/10 01:07:06;;;;;;;23.35;16.45;;;13.80;59.00;;;;;;4029495;29;20136;-47
2024/03/10 01:09:47;;;;;;;26.13;16.77;;;13.80;59.30;;;;;;4029608;29;20391;-51
2024/03/10 01:12:30;;;;;;;23.40;16.80;;;13.80;59.30;;;;;;4014302;29;20061;-50
2024/03/10 01:15:11;;;;;;;27.23;17.40;;;13.70;59.70;;;;;;4002807;29;20494;-47
2024/03/10 01:17:53;;;;;;;25.63;14.75;;;13.70;59.40;;;;;;4013695;29;20138;-49
2024/03/10 01:20:34;;;;;;;22.98;17.05;;;13.70;58.90;;;;;;4002524;29;20057;-49
2024/03/10 01:23:15;;;;;;;23.20;15.05;;;13.70;59.10;;;;;;4014100;29;20522;-48
2024/03/10 01:25:56;;;;;;;22.13;14.23;;;13.70;58.90;;;;;;4014129;29;20064;-49
2024/03/10 01:28:39;;;;;;;21.55;16.00;;;13.70;59.20;;;;;;4013280;29;20064;-49
2024/03/10 01:31:20;;;;;;;23.35;15.40;;;13.70;59.50;;;;;;4019457;29;20510;-47
2024/03/10 01:34:01;;;;;;;23.30;15.07;;;13.70;59.00;;;;;;4013393;29;20502;-48
2024/03/10 01:36:41;;;;;;;22.13;17.33;;;13.70;58.90;;;;;;4012558;29;20110;-47
2024/03/10 01:39:24;;;;;;;22.42;16.55;;;13.70;58.70;;;;;;4002063;29;20064;-50
2024/03/10 01:42:05;;;;;;;24.13;17.17;;;13.60;58.20;;;;;;4009678;29;20518;-49
2024/03/10 01:44:47;;;;;;;24.73;17.73;;;13.60;58.30;;;;;;4013461;29;20052;-49
2024/03/10 01:47:29;;;;;;;23.58;16.98;;;13.60;58.40;;;;;;4015581;29;20056;-47
2024/03/10 01:50:12;;;;;;;23.73;16.15;;;13.60;58.30;;;;;;4028268;29;20502;-47
2024/03/10 01:52:53;;;;;;;24.90;19.58;;;13.60;58.30;;;;;;4027962;29;20517;-48
2024/03/10 01:55:37;;;;;;;26.05;15.77;;;13.60;58.50;;;;;;4028413;29;20056;-51
2024/03/10 01:58:18;;;;;;;21.98;15.05;;;13.60;58.60;;;;;;4029041;29;20075;-51
2024/03/10 02:01:03;;;;;;;25.25;17.60;;;13.60;58.50;;;;;;4028389;29;20121;-46
2024/03/10 02:03:44;;;;;;;24.42;15.68;;;13.60;58.90;;;;;;4026200;29;20060;-47
2024/03/10 02:06:25;;;;;;;;;;;13.70;60.20;;;;;;4013261;29;20168;-47
2024/03/10 02:09:07;;;;;;;22.20;15.83;;;13.80;59.80;;;;;;4014221;29;20007;-48
2024/03/10 02:11:48;;;;;;;23.75;15.98;;;13.90;61.00;;;;;;4028062;29;20332;-47
2024/03/10 02:14:30;;;;;;;25.83;19.13;;;13.90;60.10;;;;;;4039062;29;20064;-48
2024/03/10 02:17:14;;;;;;;23.63;14.63;;;13.90;58.40;;;;;;4028092;29;20550;-48
2024/03/10 02:19:57;;;;;;;22.33;16.70;;;14.00;58.60;;;;;;4019666;29;20064;-47
2024/03/10 02:22:38;;;;;;;29.88;18.13;;;14.00;59.70;;;;;;4001070;29;20469;-48
2024/03/10 02:25:24;;;;;;;26.30;17.02;;;14.10;59.20;;;;;;4012734;29;20053;-47
2024/03/10 02:28:10;;;;;;;24.92;15.50;;;14.10;58.40;;;;;;4026215;29;20064;-50
2024/03/10 02:30:57;;;;;;;23.80;16.88;;;14.20;59.60;;;;;;4027695;29;20410;-50
2024/03/10 02:48:31;;;;;;;29.42;20.05;;;14.40;60.10;;;;;;4010862;29;20474;-48
2024/03/10 02:51:13;;;;;;;25.80;16.27;;;14.40;59.60;;;;;;4014328;29;20510;-51
2024/03/10 02:53:54;;;;;;;28.75;18.90;;;14.40;59.80;;;;;;4023833;29;20422;-49
2024/03/10 02:56:34;;;;;;;26.77;19.73;;;14.50;60.80;;;;;;4027284;29;20060;-48
2024/03/10 02:59:16;;;;;;;26.95;18.02;;;14.60;60.20;;;;;;4026563;29;20052;-48
2024/03/10 03:01:58;;;;;;;28.83;17.80;;;14.60;59.60;;;;;;4020480;29;20395;-49
2024/03/10 03:04:40;;;;;;;27.58;17.75;;;14.70;60.30;;;;;;4011144;29;20069;-49
2024/03/10 03:07:22;;;;;;;28.65;20.33;;;14.70;59.60;;;;;;4011656;29;20060;-48
2024/03/10 03:10:03;;;;;;;29.33;20.80;;;14.80;59.30;;;;;;4011965;29;20053;-51
2024/03/10 03:12:47;;;;;;;28.23;19.00;;;14.80;59.00;;;;;;4012144;29;20060;-49
2024/03/10 03:15:29;;;;;;;27.20;19.90;;;14.80;58.90;;;;;;4012368;29;20726;-50
2024/03/10 03:18:11;;;;;;;;;;;14.80;59.50;;;;;;4020244;29;20063;-48
2024/03/10 03:20:52;;;;;;;29.02;17.30;;;14.80;58.90;;;;;;4015367;29;19946;-48
2024/03/10 03:23:34;;;;;;;30.02;20.30;;;14.80;58.80;;;;;;4015435;29;20185;-50
2024/03/10 03:26:15;;;;;;;33.30;22.20;;;14.80;59.00;;;;;;4027203;29;20079;-49
2024/03/10 03:28:56;;;;;;;33.20;20.40;;;14.80;59.00;;;;;;4027209;29;20104;-51
2024/03/10 03:31:37;;;;;;;30.65;21.58;;;14.80;58.70;;;;;;4027285;29;20088;-50
2024/03/10 03:34:21;;;;;;;29.55;19.65;;;14.80;58.20;;;;;;4021356;29;20055;-50
2024/03/10 03:37:02;;;;;;;31.85;21.38;;;14.80;58.10;;;;;;4027245;29;20104;-48
2024/03/10 03:39:45;;;;;;;31.10;21.25;;;14.80;57.40;;;;;;4015284;29;20406;-48
2024/03/10 03:42:27;;;;;;;27.70;21.55;;;14.80;57.80;;;;;;4027009;29;20510;-47
2024/03/10 03:45:10;;;;;;;31.98;24.67;;;14.80;57.90;;;;;;4027515;29;20051;-46
2024/03/10 03:47:51;;;;;;;31.65;20.48;;;14.70;57.50;;;;;;4025770;29;20192;-45
2024/03/10 03:50:34;;;;;;;30.48;20.27;;;14.70;57.70;;;;;;4041391;29;20051;-47
2024/03/10 03:53:15;;;;;;;30.02;20.67;;;14.70;58.50;;;;;;4011799;29;20064;-49
2024/03/10 03:55:56;;;;;;;30.83;21.50;;;14.70;58.30;;;;;;4011839;29;20060;-49
2024/03/10 03:58:37;;;;;;;30.52;21.33;;;14.80;58.40;;;;;;4012006;29;20415;-50
2024/03/10 04:01:19;;;;;;;32.50;21.85;;;14.80;58.70;;;;;;4014573;29;20387;-48
2024/03/10 04:04:01;;;;;;;35.45;23.77;;;14.80;58.70;;;;;;4020365;29;20064;-48
2024/03/10 04:06:43;;;;;;;29.95;19.40;;;14.90;58.20;;;;;;4039303;29;20577;-48
2024/03/10 04:09:25;;;;;;;30.65;21.95;;;15.00;58.10;;;;;;4044306;29;20592;-51
2024/03/10 04:12:06;;;;;;;32.95;23.88;;;15.00;57.70;;;;;;4033937;29;20140;-53
2024/03/10 04:14:47;;;;;;;34.90;23.67;;;15.00;57.60;;;;;;4044971;29;20121;-51
2024/03/10 04:17:28;;;;;;;33.55;25.10;;;15.00;57.30;;;;;;4044957;29;20417;-51
2024/03/10 04:20:12;;;;;;;32.67;23.48;;;15.00;57.00;;;;;;4038044;29;20060;-51
2024/03/10 04:22:55;;;;;;;31.23;21.80;;;15.00;57.30;;;;;;4036022;29;20143;-49
2024/03/10 04:25:36;;;;;;;33.75;25.50;;;15.00;57.40;;;;;;4044770;29;20406;-49
2024/03/10 04:28:17;;;;;;;33.08;21.27;;;15.00;57.10;;;;;;4014072;29;20060;-48
2024/03/10 04:30:58;;;;;;;30.67;25.25;;;15.00;57.10;;;;;;4014352;29;20060;-49
2024/03/10 04:33:40;;;;;;;31.90;21.17;;;14.90;56.70;;;;;;4014132;29;20061;-50
2024/03/10 04:36:21;;;;;;;30.10;20.60;;;14.90;57.10;;;;;;4014472;29;20064;-50
2024/03/10 04:39:03;;;;;;;31.13;25.80;;;14.90;57.30;;;;;;4018981;29;20060;-46
2024/03/10 04:41:45;;;;;;;30.85;21.95;;;14.80;56.90;;;;;;4014059;29;20064;-47
2024/03/10 04:44:26;;;;;;;;;;;14.80;57.20;;;;;;4002948;29;20563;-47
2024/03/10 04:47:08;;;;;;;32.00;21.45;;;14.80;57.20;;;;;;4004064;29;19966;-48
2024/03/10 04:49:49;;;;;;;30.85;23.30;;;14.80;57.00;;;;;;4029594;29;20075;-46
2024/03/10 04:52:30;;;;;;;30.20;18.98;;;14.80;56.30;;;;;;4029342;29;20104;-46
2024/03/10 04:55:13;;;;;;;31.15;24.70;;;14.80;56.80;;;;;;4030460;29;20108;-48
2024/03/10 04:57:56;;;;;;;32.05;22.27;;;14.70;57.10;;;;;;4029150;29;20060;-49
2024/03/10 05:00:37;;;;;;;33.83;24.45;;;14.70;57.30;;;;;;4017480;29;20068;-46
2024/03/10 05:03:20;;;;;;;31.80;20.40;;;14.70;57.20;;;;;;4002147;29;20065;-45
2024/03/10 05:06:01;;;;;;;32.83;20.85;;;14.70;57.50;;;;;;4013570;29;20075;-49
2024/03/10 05:08:43;;;;;;;35.35;24.77;;;14.60;58.20;;;;;;4001792;29;20064;-51
2024/03/10 05:11:25;;;;;;;35.60;24.75;;;14.70;58.50;;;;;;4025435;29;20048;-47
2024/03/10 05:14:06;;;;;;;32.42;22.77;;;14.70;58.20;;;;;;4013145;29;20105;-48
2024/03/10 05:16:47;;;;;;;34.17;21.92;;;14.70;58.40;;;;;;4013733;29;20125;-49
2024/03/10 05:19:28;;;;;;;31.75;23.98;;;14.80;58.20;;;;;;4013413;29;20105;-46
2024/03/10 05:22:10;;;;;;;35.85;25.45;;;14.80;57.50;;;;;;4013180;29;20116;-51
2024/03/10 05:24:51;;;;;;;35.17;22.60;;;14.90;57.20;;;;;;4013024;29;20053;-46
2024/03/10 05:27:34;;;;;;;35.97;23.92;;;14.90;57.10;;;;;;4019342;29;20100;-46
2024/03/10 05:30:16;;;;;;;34.75;24.10;;;14.90;57.50;;;;;;4012738;29;20072;-48
2024/03/10 05:32:57;;;;;;;37.42;23.88;;;14.90;58.20;;;;;;4013325;29;20124;-47
2024/03/10 05:35:38;;;;;;;32.90;23.17;;;15.00;57.50;;;;;;4013434;29;20056;-46
2024/03/10 05:38:19;;;;;;;36.67;24.93;;;15.00;57.30;;;;;;4013713;29;20064;-46
2024/03/10 05:41:00;;;;;;;33.38;25.25;;;15.10;56.60;;;;;;4013298;29;20426;-50
2024/03/10 05:43:43;;;;;;;33.70;23.55;;;15.00;56.70;;;;;;4005832;29;20137;-45
2024/03/10 05:46:24;;;;;;;34.70;21.30;;;15.00;56.50;;;;;;4013097;29;20056;-46
2024/03/10 05:49:05;;;;;;;32.80;23.45;;;15.00;56.80;;;;;;4027072;29;20052;-45
2024/03/10 05:51:47;;;;;;;34.30;25.48;;;14.90;56.80;;;;;;4013394;29;20052;-46
2024/03/10 05:54:28;;;;;;;;;;;14.90;56.30;;;;;;4013253;29;20057;-45
2024/03/10 05:57:10;;;;;;;34.42;25.00;;;14.90;56.40;;;;;;4011881;29;20281;-46
2024/03/10 05:59:52;;;;;;;35.08;25.58;;;14.80;56.60;;;;;;4013279;29;20057;-49
2024/03/10 06:02:33;;;;;;;35.97;23.83;;;14.60;55.90;;;;;;4041530;29;20128;-46
2024/03/10 06:05:14;;;;;;;37.17;27.65;;;14.50;56.10;;;;;;4032359;29;20491;-47
2024/03/10 06:07:55;;;;;;;33.55;23.98;;;14.40;56.50;;;;;;4028371;29;20060;-47
2024/03/10 06:10:36;;;;;;;37.38;25.77;;;14.40;57.40;;;;;;4028137;29;20055;-47
2024/03/10 06:13:17;;;;;;;38.58;26.65;;;14.40;57.20;;;;;;4028209;29;20128;-51
2024/03/10 06:16:02;;;;;;;34.47;24.60;;;14.40;57.10;;;;;;4027928;29;20052;-46
2024/03/10 06:27:39;;;;;;;38.88;26.42;;;14.40;57.50;;;;;;4011908;29;20068;-48
2024/03/10 06:30:20;;;;;;;38.65;24.92;;;14.40;57.90;;;;;;4012758;29;20061;-49
2024/03/10 06:33:03;;;;;;;35.25;23.48;;;14.50;58.60;;;;;;4021648;29;20595;-50
2024/03/10 06:35:45;;;;;;;40.33;25.02;;;14.60;58.40;;;;;;4012455;29;20418;-48
2024/03/10 06:38:26;;;;;;;34.20;23.40;;;14.70;58.30;;;;;;4000797;29;20840;-49
2024/03/10 06:41:07;;;;;;;35.15;24.98;;;14.80;58.20;;;;;;4016202;29;20583;-51
2024/03/10 06:43:49;;;;;;;33.33;23.17;;;15.00;57.90;;;;;;4018267;29;20115;-51
2024/03/10 06:46:31;;;;;;;37.00;25.27;;;15.10;58.10;;;;;;4042863;29;20515;-48
2024/03/10 06:49:14;;;;;;;29.83;21.85;;;15.20;57.70;;;;;;4012507;29;20137;-49
2024/03/10 06:51:57;;;;;;;36.40;24.65;;;15.30;57.20;;;;;;4012632;29;20060;-49
2024/03/10 06:54:38;;;;;;;33.95;22.42;;;15.40;56.50;;;;;;4012497;29;20057;-49
2024/03/10 06:57:19;;;;;;;32.40;24.85;;;15.50;56.20;;;;;;4012359;29;20060;-51
2024/03/10 07:00:01;;;;;;;33.92;25.05;;;15.50;56.40;;;;;;4000073;29;20137;-48
2024/03/10 07:02:45;;;;;;;37.65;24.52;;;15.50;56.00;;;;;;4011567;29;20108;-50
2024/03/10 07:05:28;;;;;;;36.88;24.77;;;15.60;55.70;;;;;;4011695;29;20056;-51
2024/03/10 07:08:09;;;;;;;35.85;25.33;;;15.60;55.70;;;;;;4024378;29;20713;-51
2024/03/10 07:10:50;;;;;;;37.30;25.80;;;15.70;55.60;;;;;;4027069;29;20071;-48
2024/03/10 07:13:32;;;;;;;34.83;24.98;;;15.70;56.70;;;;;;4012503;29;20186;-51
2024/03/10 07:16:13;;;;;;;32.92;22.17;;;15.70;56.00;;;;;;4011513;29;20080;-49
2024/03/10 07:18:54;;;;;;;37.72;25.52;;;15.80;55.60;;;;;;4011005;29;20204;-48
2024/03/10 07:21:36;;;;;;;33.72;24.38;;;15.80;55.40;;;;;;4011807;29;20060;-51
2024/03/10 07:24:21;;;;;;;32.00;26.60;;;15.80;56.20;;;;;;3981502;29;20064;-49
2024/03/10 07:27:03;;;;;;;36.58;22.98;;;15.80;56.40;;;;;;4010866;29;20061;-48
2024/03/10 07:29:44;;;;;;;35.70;23.83;;;15.80;56.80;;;;;;4025535;29;20060;-48
2024/03/10 07:32:26;;;;;;;35.17;24.70;;;15.70;56.70;;;;;;4026438;29;20151;-48
2024/03/10 07:35:08;;;;;;;;;;;15.70;56.50;;;;;;4026962;29;20067;-50
2024/03/10 07:37:51;;;;;;;33.38;22.35;;;15.60;56.20;;;;;;4015140;29;20002;-48
2024/03/10 07:40:32;;;;;;;33.35;21.75;;;15.60;56.50;;;;;;4017705;29;20061;-49
2024/03/10 07:43:15;;;;;;;35.25;24.92;;;15.60;56.00;;;;;;4010727;29;20055;-50
2024/03/10 07:45:56;;;;;;;32.63;22.80;;;15.70;56.40;;;;;;4018638;29;20057;-46
2024/03/10 07:48:37;;;;;;;33.17;23.83;;;15.60;56.50;;;;;;4008477;29;20202;-48
2024/03/10 07:51:24;;;;;;;35.63;25.20;;;15.60;56.20;;;;;;4017211;29;20486;-50
2024/03/10 07:54:07;;;;;;;34.35;25.17;;;15.60;55.80;;;;;;4010208;29;20061;-47
2024/03/10 07:56:51;;;;;;;33.17;27.00;;;15.60;55.90;;;;;;4010762;29;20137;-49
2024/03/10 07:59:32;;;;;;;33.88;24.58;;;15.50;55.70;;;;;;4023698;29;20061;-50
2024/03/10 08:02:14;;;;;;;36.80;24.75;;;15.50;56.00;;;;;;4015742;29;20117;-49
2024/03/10 08:04:58;;;;;;;37.20;24.65;;;15.40;56.00;;;;;;4011244;29;20056;-51
2024/03/10 08:07:40;;;;;;;34.63;23.00;;;15.30;57.20;;;;;;4017280;29;20166;-52
2024/03/10 08:10:23;;;;;;;32.97;23.60;;;15.30;57.30;;;;;;4010264;29;20061;-47
2024/03/10 08:13:04;;;;;;;36.85;25.70;;;15.30;57.50;;;;;;4025677;29;20055;-52
2024/03/10 08:15:46;;;;;;;;;;;15.40;56.80;;;;;;4011524;29;20084;-49
2024/03/10 08:18:27;;;;;;;33.93;23.50;;;15.40;56.40;;;;;;4011607;29;19932;-52
2024/03/10 08:21:08;;;;;;;35.03;22.85;;;15.40;56.70;;;;;;4010963;29;20310;-53
2024/03/10 08:23:49;;;;;;;34.85;24.10;;;15.40;56.70;;;;;;3999120;29;20057;-49
2024/03/10 08:26:31;;;;;;;34.38;25.25;;;15.40;56.80;;;;;;4011150;29;20060;-49
2024/03/10 08:29:12;;;;;;;34.92;23.98;;;15.30;56.50;;;;;;4011102;29;20104;-48
2024/03/10 08:31:55;;;;;;;34.42;23.80;;;15.20;56.40;;;;;;4011206;29;20109;-50
2024/03/10 08:34:36;;;;;;;37.85;24.58;;;15.20;57.00;;;;;;4010015;29;20631;-48
2024/03/10 08:37:17;;;;;;;36.45;24.73;;;15.20;57.20;;;;;;4011190;29;20112;-46
2024/03/10 08:39:59;;;;;;;36.47;23.02;;;15.20;57.40;;;;;;4023274;29;20068;-50
2024/03/10 08:42:42;;;;;;;34.60;25.33;;;15.20;57.00;;;;;;4023511;29;20056;-44
2024/03/10 08:45:25;;;;;;;34.50;24.35;;;15.30;57.10;;;;;;4011017;29;20109;-48
2024/03/10 08:48:09;;;;;;;36.05;25.40;;;15.30;57.50;;;;;;3989864;29;20140;-43
2024/03/10 08:50:50;;;;;;;36.13;24.13;;;15.30;57.50;;;;;;4021365;29;20182;-48
2024/03/10 08:53:32;;;;;;;29.58;22.02;;;15.40;57.50;;;;;;4029422;29;20064;-48
2024/03/10 08:56:14;;;;;;;33.95;22.15;;;15.40;58.10;;;;;;4028744;29;20060;-48
2024/03/10 08:58:56;;;;;;;36.03;25.67;;;15.40;58.00;;;;;;4029047;29;20068;-50
2024/03/10 09:01:38;;;;;;;36.75;23.85;;;15.30;57.80;;;;;;4023740;29;20072;-47
2024/03/10 09:04:19;;;;;;;38.22;26.80;;;15.30;58.00;;;;;;4013979;29;20081;-46
2024/03/10 09:07:03;;;;;;;34.53;24.92;;;15.20;58.50;;;;;;4014076;29;20060;-46
2024/03/10 09:09:44;;;;;;;36.35;25.00;;;15.20;57.90;;;;;;4013748;29;20073;-48
2024/03/10 09:12:27;;;;;;;34.13;24.38;;;15.20;58.10;;;;;;4013410;29;20060;-48
2024/03/10 09:15:12;;;;;;;36.38;27.33;;;15.20;58.50;;;;;;4002515;29;20109;-51
2024/03/10 09:17:54;;;;;;;35.13;26.30;;;15.20;58.20;;;;;;4012833;29;20101;-49
2024/03/10 09:20:35;;;;;;;34.72;25.27;;;15.30;58.30;;;;;;4017707;29;20518;-46
2024/03/10 09:23:17;;;;;;;40.40;25.58;;;15.30;58.10;;;;;;4026678;29;20063;-47
2024/03/10 09:26:00;;;;;;;36.63;28.05;;;15.40;57.90;;;;;;4018959;29;20064;-47
2024/03/10 09:28:44;;;;;;;35.47;25.70;;;15.30;57.80;;;;;;4028631;29;20064;-48
2024/03/10 09:31:27;;;;;;;34.17;25.73;;;15.30;58.00;;;;;;4013258;29;20209;-47
2024/03/10 09:34:09;;;;;;;35.58;23.88;;;15.30;57.80;;;;;;4001311;29;20060;-47
2024/03/10 09:36:50;;;;;;;36.70;25.80;;;15.40;57.80;;;;;;4014276;29;20048;-47
2024/03/10 09:39:32;;;;;;;36.65;24.58;;;15.30;57.90;;;;;;4029036;29;20147;-46
2024/03/10 09:42:14;;;;;;;41.65;27.33;;;15.20;57.70;;;;;;4027254;29;20177;-45
2024/03/10 09:44:55;;;;;;;;;;;15.20;57.80;;;;;;4019484;29;20505;-49
2024/03/10 09:47:37;;;;;;;32.50;25.13;;;15.20;58.20;;;;;;4028408;29;20011;-48
2024/03/10 09:50:23;;;;;;;39.25;26.20;;;15.10;58.20;;;;;;4012766;29;20396;-47
2024/03/10 09:53:06;;;;;;;38.60;28.67;;;15.30;58.50;;;;;;4012016;29;20068;-48
2024/03/10 09:55:47;;;;;;;36.88;27.75;;;15.50;58.30;;;;;;4012455;29;20125;-47
2024/03/10 09:58:34;;;;;;;33.80;26.33;;;15.90;57.50;;;;;;4017752;29;20092;-48
2024/03/10 10:01:24;;;;;;;35.42;27.10;;;16.30;57.00;;;;;;4011476;29;20061;-47
2024/03/10 10:04:10;;;;;;;36.00;27.83;;;16.90;55.30;;;;;;4017713;29;20435;-49
2024/03/10 10:06:51;;;;;;;35.63;25.30;;;17.30;54.00;;;;;;4012725;29;20415;-48
2024/03/10 10:09:32;;;;;;;35.88;27.52;;;17.70;53.50;;;;;;4016131;29;20119;-50
2024/03/10 10:12:13;;;;;;;33.33;23.52;;;18.10;52.90;;;;;;4018075;29;20359;-47
2024/03/10 10:14:54;;;;;;;28.85;22.00;;;18.40;51.80;;;;;;4027241;29;20189;-48
2024/03/10 10:17:36;;;;;;;;;;;18.70;51.40;;;;;;4010548;29;20162;-51
2024/03/10 10:20:23;;;;;;;37.95;25.55;;;18.90;50.20;;;;;;4010465;29;20704;-44
2024/03/10 10:23:07;;;;;;;34.05;27.60;;;19.00;50.50;;;;;;4019401;29;20086;-47
2024/03/10 10:25:47;;;;;;;33.33;26.85;;;19.00;50.50;;;;;;4034723;29;20075;-51
2024/03/10 10:28:29;;;;;;;35.17;26.40;;;19.10;50.20;;;;;;4016792;29;20211;-47
2024/03/10 10:31:13;;;;;;;33.90;28.63;;;19.00;50.20;;;;;;4012234;29;20145;-47
2024/03/10 10:33:57;;;;;;;32.75;25.25;;;19.00;50.50;;;;;;4011504;29;20068;-48
2024/03/10 10:36:40;;;;;;;33.97;25.23;;;18.90;50.60;;;;;;4015515;29;20197;-48
2024/03/10 10:39:26;;;;;;;29.48;20.58;;;18.90;50.50;;;;;;4012195;29;20057;-46
2024/03/10 10:42:08;;;;;;;34.65;26.08;;;18.90;50.70;;;;;;4011369;29;20061;-49
2024/03/10 10:44:53;;;;;;;35.28;24.73;;;19.00;50.90;;;;;;4011105;29;20197;-47
2024/03/10 10:47:36;;;;;;;31.83;22.95;;;19.10;50.70;;;;;;4012988;29;20134;-47
2024/03/10 10:50:24;;;;;;;34.78;26.95;;;19.10;50.80;;;;;;4012173;29;20072;-46
2024/03/10 10:53:07;;;;;;;32.03;24.30;;;19.20;50.90;;;;;;4020383;29;20568;-46
2024/03/10 10:55:49;;;;;;;30.33;23.80;;;19.20;51.30;;;;;;4042431;29;20051;-51
2024/03/10 10:58:31;;;;;;;;;;;19.30;50.50;;;;;;4043016;29;20197;-50
2024/03/10 11:01:12;;;;;;;31.05;23.20;;;19.40;50.40;;;;;;4042232;29;19939;-45
2024/03/10 11:03:54;;;;;;;37.47;25.60;;;19.50;50.40;;;;;;4033769;29;20509;-52
2024/03/10 11:06:36;;;;;;;32.80;23.77;;;19.50;50.60;;;;;;4027050;29;20060;-47
2024/03/10 11:09:27;;;;;;;34.72;22.92;;;19.50;50.10;;;;;;4022405;29;20110;-47
2024/03/10 11:12:20;;;;;;;31.37;24.37;;;19.50;50.20;;;;;;4014819;29;20067;-46
2024/03/10 11:15:07;;;;;;;28.98;22.23;;;19.50;50.20;;;;;;4019062;29;20306;-47
2024/03/10 11:17:50;;;;;;;30.30;23.48;;;19.60;50.40;;;;;;4011724;29;20430;-46
2024/03/10 11:20:32;;;;;;;31.02;22.65;;;19.60;50.40;;;;;;4012138;29;20190;-46
2024/03/10 11:23:14;;;;;;;31.80;23.80;;;19.50;50.20;;;;;;4011358;29;20076;-49
2024/03/10 11:26:05;;;;;;;29.45;24.73;;;19.50;50.50;;;;;;4014641;29;20084;-48
2024/03/10 11:28:49;;;;;;;31.88;26.08;;;19.30;50.50;;;;;;4011386;29;20119;-47
2024/03/10 11:31:40;;;;;;;27.70;21.15;;;19.20;50.80;;;;;;4011544;29;20060;-48
2024/03/10 11:34:21;;;;;;;33.67;24.80;;;19.10;50.80;;;;;;4010586;29;20125;-52
2024/03/10 11:37:04;;;;;;;31.20;27.88;;;19.00;51.40;;;;;;4018830;29;20056;-52
2024/03/10 11:39:45;;;;;;;27.73;20.77;;;18.90;51.40;;;;;;4022351;29;20152;-49
2024/03/10 11:42:27;;;;;;;31.75;24.85;;;18.70;51.90;;;;;;4023387;29;20136;-48
2024/03/10 11:45:12;;;;;;;31.50;24.33;;;18.70;52.00;;;;;;4020393;29;20592;-49
2024/03/10 11:47:55;;;;;;;31.42;23.55;;;18.60;52.20;;;;;;4011419;29;20625;-48
2024/03/10 11:50:36;;;;;;;31.13;26.08;;;18.50;52.50;;;;;;4015764;29;20067;-49
2024/03/10 11:53:17;;;;;;;32.22;26.38;;;18.40;52.80;;;;;;4011280;29;20053;-49
2024/03/10 11:56:00;;;;;;;32.47;23.75;;;18.40;53.00;;;;;;4010943;29;20084;-50
2024/03/10 11:58:44;;;;;;;30.70;21.92;;;18.30;53.20;;;;;;4011722;29;20105;-48
2024/03/10 12:01:27;;;;;;;29.95;22.90;;;18.30;53.40;;;;;;4021586;29;20751;-49
2024/03/10 12:04:08;;;;;;;33.60;23.17;;;18.40;53.30;;;;;;4026267;29;20068;-49
2024/03/10 12:06:50;;;;;;;32.03;26.75;;;18.30;53.30;;;;;;4026623;29;20064;-49
2024/03/10 12:09:31;;;;;;;30.42;24.88;;;18.30;53.60;;;;;;4013565;29;20581;-47
2024/03/10 12:12:13;;;;;;;34.85;25.23;;;18.30;53.60;;;;;;4024878;29;20083;-49
2024/03/10 12:14:56;;;;;;;28.90;21.75;;;18.40;53.60;;;;;;4025990;29;20056;-49
2024/03/10 12:17:37;;;;;;;31.35;26.90;;;18.30;53.80;;;;;;4026487;29;20075;-51
2024/03/10 12:20:19;;;;;;;31.17;24.85;;;18.30;53.80;;;;;;4014690;29;20121;-45
2024/03/10 12:23:00;;;;;;;32.58;24.88;;;18.40;53.80;;;;;;4030014;29;20104;-45
2024/03/10 12:25:42;;;;;;;32.60;24.98;;;18.30;54.00;;;;;;4029319;29;20060;-50
2024/03/10 12:28:23;;;;;;;31.52;24.33;;;18.30;54.50;;;;;;4027135;29;20061;-45
2024/03/10 12:31:12;;;;;;;30.50;24.90;;;18.30;54.40;;;;;;4015215;29;20072;-46
2024/03/10 12:33:53;;;;;;;29.20;21.60;;;18.30;54.30;;;;;;4013708;29;20081;-48
2024/03/10 12:36:35;;;;;;;25.95;22.63;;;18.30;54.60;;;;;;4013785;29;20570;-46
2024/03/10 12:39:18;;;;;;;29.13;22.77;;;18.20;54.50;;;;;;4013700;29;20104;-46
2024/03/10 12:41:58;;;;;;;29.33;22.45;;;18.10;54.40;;;;;;4040934;29;20512;-47
2024/03/10 12:44:40;;;;;;;27.33;19.73;;;18.00;54.60;;;;;;4038779;29;20068;-44
2024/03/10 12:47:23;;;;;;;27.77;24.77;;;17.90;55.30;;;;;;4013782;29;20194;-48
2024/03/10 12:50:07;;;;;;;28.80;22.58;;;17.90;55.20;;;;;;4014613;29;20060;-45
2024/03/10 12:52:48;;;;;;;28.08;22.30;;;17.90;55.10;;;;;;4020907;29;20052;-44
2024/03/10 12:55:30;;;;;;;28.02;25.17;;;18.00;55.10;;;;;;4013777;29;20121;-44
2024/03/10 12:58:14;;;;;;;27.60;23.10;;;18.00;55.20;;;;;;4019782;29;20112;-45
2024/03/10 13:00:55;;;;;;;27.92;24.55;;;18.00;55.20;;;;;;4017035;29;20605;-48
2024/03/10 13:03:37;;;;;;;28.75;22.08;;;17.90;55.30;;;;;;4010909;29;20135;-46
2024/03/10 13:06:19;;;;;;;30.85;24.63;;;17.90;55.30;;;;;;4013037;29;20060;-44
2024/03/10 13:09:00;;;;;;;28.58;23.05;;;17.90;55.70;;;;;;4013583;29;20076;-46
2024/03/10 13:11:41;;;;;;;29.05;24.50;;;17.90;55.20;;;;;;4013439;29;20201;-45
2024/03/10 13:14:22;;;;;;;;;;;17.90;55.10;;;;;;4015198;29;20052;-48
2024/03/10 13:17:03;;;;;;;30.23;26.95;;;18.00;55.10;;;;;;4013323;29;20040;-46
2024/03/10 13:19:46;;;;;;;30.10;25.55;;;18.00;55.00;;;;;;4013815;29;20056;-51
2024/03/10 13:22:27;;;;;;;28.42;21.45;;;18.00;54.80;;;;;;4014253;29;20140;-48
2024/03/10 13:25:09;;;;;;;30.55;25.33;;;18.10;55.20;;;;;;4013697;29;20064;-48
2024/03/10 13:27:50;;;;;;;28.45;24.80;;;18.10;55.10;;;;;;4013365;29;20121;-50
2024/03/10 13:30:32;;;;;;;32.65;22.90;;;18.20;55.20;;;;;;4013464;29;20061;-49
2024/03/10 13:33:14;;;;;;;28.58;24.25;;;18.20;55.30;;;;;;4013267;29;20415;-50
2024/03/10 13:35:56;;;;;;;32.38;23.60;;;18.30;55.50;;;;;;4022177;29;20051;-52
2024/03/10 13:38:47;;;;;;;29.38;23.58;;;18.40;55.40;;;;;;4028374;29;20482;-51
2024/03/10 13:41:28;;;;;;;27.05;22.00;;;18.30;55.20;;;;;;4017013;29;20055;-52
2024/03/10 13:44:10;;;;;;;30.25;22.63;;;18.40;55.40;;;;;;4028739;29;20121;-51
2024/03/10 13:46:51;;;;;;;27.35;21.88;;;18.40;55.30;;;;;;4027211;29;20055;-52
2024/03/10 13:49:32;;;;;;;28.92;24.50;;;18.40;55.30;;;;;;4028626;29;20119;-52
2024/03/10 13:52:16;;;;;;;27.00;22.40;;;18.30;55.20;;;;;;4016660;29;20052;-50
2024/03/10 13:55:00;;;;;;;29.55;22.58;;;18.40;55.50;;;;;;4031516;29;20107;-50
2024/03/10 13:57:41;;;;;;;27.65;20.70;;;18.40;55.50;;;;;;4028687;29;20064;-54
2024/03/10 14:00:24;;;;;;;28.80;23.75;;;18.30;55.80;;;;;;4022561;29;20065;-53
2024/03/10 14:03:06;;;;;;;25.42;19.75;;;18.30;55.90;;;;;;4013974;29;20248;-50
2024/03/10 14:05:47;;;;;;;22.95;19.23;;;18.30;55.90;;;;;;4020500;29;20165;-50
2024/03/10 14:08:30;;;;;;;26.98;22.65;;;18.20;55.70;;;;;;4023788;29;20056;-47
2024/03/10 14:11:13;;;;;;;26.67;20.27;;;18.20;56.00;;;;;;4016948;29;20113;-47